Saranac, Michigan
Current Conditions -  °F | °C
As of 8:34 PM on Wednesday 22 Oct 2014 (Local Time) from KY70 Reporting Station
Overcast Overcast  
Wind Chill: 44°   Ceiling: 2000
Heat Index: 44°   Visibility: 10mi
Dew Point: 38°   Wind: 3mph
Humidity: 77%   Direction: 130°SE
Pressure: 30.3"   Gusts: NA
Location:  42.93°N, 85.21°W
Report Text: KY70 230034Z AUTO 13003KT 10SM OVC020 07/03 A3030 RMK AO2 T00690031
Loading
Personal Weather Stations






























Interactive Weather Map
Tropical Storm Tracking
New forecast layout! Learn more

10-Day Weather Forecast

Advertisements
Track Severe Weather on mobile